Time;durP1;ratioP1;P1;durP2;ratioP2;P2;SDS_P1;SDS_P2;PMS_P1;PMS_P2;Temp;Humidity;BMP_temperature;BMP_pressure;BME280_temperature;BME280_humidity;BME280_pressure;Samples;Min_cycle;Max_cycle;Signal;HPM_P1;HPM_P2
2023/09/17 00:00:32;;;;;;;2.05;1.15;;;16.00;99.90;;;;;;5054768;28;20080;-69
2023/09/17 00:02:58;;;;;;;1.90;1.20;;;16.00;99.90;;;;;;5056163;28;20083;-69
2023/09/17 00:05:24;;;;;;;2.72;1.38;;;16.00;99.90;;;;;;5054176;28;20044;-69
2023/09/17 00:07:50;;;;;;;1.85;1.40;;;15.90;99.90;;;;;;5056075;28;20041;-69
2023/09/17 00:10:16;;;;;;;2.05;1.52;;;16.00;99.90;;;;;;5087800;28;20049;-69
2023/09/17 00:12:42;;;;;;;2.70;1.35;;;15.90;99.90;;;;;;5057808;28;20102;-69
2023/09/17 00:15:08;;;;;;;2.22;1.10;;;16.00;99.90;;;;;;5059116;28;20041;-70
2023/09/17 00:17:34;;;;;;;1.88;0.98;;;15.90;99.90;;;;;;5059947;28;20048;-69
2023/09/17 00:20:00;;;;;;;1.80;1.00;;;15.90;99.90;;;;;;5056308;28;20461;-69
2023/09/17 00:22:26;;;;;;;2.95;1.80;;;15.90;99.90;;;;;;5062128;28;20106;-69
2023/09/17 00:24:52;;;;;;;1.73;1.08;;;15.90;99.90;;;;;;5058440;28;20037;-69
2023/09/17 00:27:17;;;;;;;1.95;1.10;;;15.80;99.90;;;;;;5064139;28;20127;-69
2023/09/17 00:29:43;;;;;;;2.55;1.48;;;15.80;99.90;;;;;;5062477;28;20033;-69
2023/09/17 00:32:09;;;;;;;3.72;0.95;;;15.80;99.90;;;;;;5060831;28;20107;-69
2023/09/17 00:34:34;;;;;;;1.95;1.20;;;15.80;99.90;;;;;;5044130;28;20478;-69
2023/09/17 00:37:00;;;;;;;3.65;1.33;;;15.80;99.90;;;;;;5055786;28;20033;-69
2023/09/17 00:39:27;;;;;;;1.67;0.95;;;15.80;99.90;;;;;;5062340;28;20044;-69
2023/09/17 00:41:53;;;;;;;2.67;1.38;;;15.80;99.90;;;;;;5058373;28;20041;-69
2023/09/17 00:44:19;;;;;;;1.90;1.25;;;15.80;99.90;;;;;;5058945;28;20029;-69
2023/09/17 00:46:46;;;;;;;1.42;0.77;;;15.80;99.90;;;;;;5057334;28;20099;-69
2023/09/17 00:49:13;;;;;;;1.58;1.15;;;15.80;99.90;;;;;;5058720;28;20079;-70
2023/09/17 00:51:43;;;;;;;3.22;1.63;;;15.80;99.90;;;;;;5058831;28;20052;-69
2023/09/17 00:54:11;;;;;;;1.38;0.70;;;15.80;99.90;;;;;;5056743;28;20064;-69
2023/09/17 00:56:37;;;;;;;1.73;1.05;;;15.80;99.90;;;;;;5061200;28;20032;-69
2023/09/17 00:59:05;;;;;;;3.10;1.58;;;15.80;99.90;;;;;;5064926;28;20059;-69
2023/09/17 01:01:32;;;;;;;3.90;1.27;;;15.90;99.90;;;;;;5057732;28;20060;-69
2023/09/17 01:03:59;;;;;;;1.40;1.05;;;15.80;99.90;;;;;;5060807;28;20048;-69
2023/09/17 01:06:25;;;;;;;2.60;1.45;;;15.80;99.90;;;;;;5056697;28;20482;-69
2023/09/17 01:08:51;;;;;;;2.88;1.42;;;15.80;99.90;;;;;;5058357;28;20075;-69
2023/09/17 01:11:18;;;;;;;2.33;1.30;;;15.80;99.90;;;;;;5054726;28;20040;-69
2023/09/17 01:13:49;;;;;;;2.92;1.73;;;15.80;99.90;;;;;;5059781;28;20047;-68
2023/09/17 01:16:16;;;;;;;3.30;1.67;;;15.80;99.90;;;;;;5059467;28;20124;-68
2023/09/17 01:18:42;;;;;;;1.77;1.02;;;15.80;99.90;;;;;;5054201;28;20118;-69
2023/09/17 01:21:14;;;;;;;1.52;1.20;;;15.80;99.90;;;;;;5055878;28;20036;-68
2023/09/17 01:23:47;;;;;;;1.55;1.00;;;15.80;99.90;;;;;;5092842;28;20541;-69
2023/09/17 01:26:26;;;;;;;1.30;0.77;;;15.80;99.90;;;;;;5062495;28;20041;-69
2023/09/17 01:28:54;;;;;;;1.67;1.08;;;15.80;99.90;;;;;;5039306;28;20405;-69
2023/09/17 01:31:21;;;;;;;2.03;1.08;;;15.80;99.90;;;;;;5058409;28;20562;-69
2023/09/17 01:33:48;;;;;;;1.88;1.10;;;15.80;99.90;;;;;;5065439;28;20068;-68
2023/09/17 01:36:23;;;;;;;2.10;1.00;;;15.80;99.90;;;;;;5059815;28;20040;-69
2023/09/17 01:38:54;;;;;;;2.75;1.40;;;15.80;99.90;;;;;;5061100;28;20044;-69
2023/09/17 01:41:21;;;;;;;2.17;1.35;;;15.80;99.90;;;;;;5074662;28;20438;-69
2023/09/17 01:43:48;;;;;;;3.10;1.63;;;15.80;99.90;;;;;;5063985;28;20036;-69
2023/09/17 01:46:16;;;;;;;2.58;1.38;;;15.80;99.90;;;;;;5063106;28;20033;-68
2023/09/17 01:48:42;;;;;;;1.20;0.95;;;15.80;99.90;;;;;;5057460;28;20044;-69
2023/09/17 01:51:10;;;;;;;1.83;0.75;;;15.80;99.90;;;;;;5055819;28;20033;-69
2023/09/17 01:53:36;;;;;;;2.53;1.23;;;15.80;99.90;;;;;;5061461;28;20051;-68
2023/09/17 01:56:04;;;;;;;2.50;1.40;;;15.80;99.90;;;;;;5058640;28;20128;-69
2023/09/17 01:58:30;;;;;;;3.00;1.58;;;15.80;99.90;;;;;;5058091;28;20045;-69
2023/09/17 02:00:56;;;;;;;2.95;1.55;;;15.70;99.90;;;;;;5093993;28;20060;-70
2023/09/17 02:03:22;;;;;;;1.85;0.95;;;15.70;99.90;;;;;;5059260;28;20056;-69
2023/09/17 02:05:48;;;;;;;1.65;1.30;;;15.70;99.90;;;;;;5065206;28;20055;-69
2023/09/17 02:08:14;;;;;;;2.15;1.25;;;15.80;99.90;;;;;;5056189;28;20518;-69
2023/09/17 02:10:40;;;;;;;3.28;1.58;;;15.70;99.90;;;;;;5060560;28;20056;-69
2023/09/17 02:13:06;;;;;;;2.67;1.15;;;15.70;99.90;;;;;;5061253;28;20232;-69
2023/09/17 02:15:32;;;;;;;1.42;0.90;;;15.70;99.90;;;;;;5043933;28;20041;-69
2023/09/17 02:17:58;;;;;;;1.67;0.88;;;15.70;99.90;;;;;;5061748;28;20095;-69
2023/09/17 02:20:24;;;;;;;1.63;1.13;;;15.70;99.90;;;;;;5064170;28;20033;-69
2023/09/17 02:22:50;;;;;;;3.60;1.40;;;15.70;99.90;;;;;;5055152;28;20079;-69
2023/09/17 02:25:17;;;;;;;3.10;1.08;;;15.70;99.90;;;;;;5059420;28;20095;-70
2023/09/17 02:27:43;;;;;;;6.05;1.65;;;15.70;99.90;;;;;;5063708;28;20068;-70
2023/09/17 02:30:09;;;;;;;1.70;1.10;;;15.80;99.90;;;;;;5058547;28;20047;-69
2023/09/17 02:32:38;;;;;;;3.03;1.08;;;15.80;99.90;;;;;;5057847;28;20718;-70
2023/09/17 02:35:07;;;;;;;1.60;0.93;;;15.80;99.90;;;;;;5055379;28;20056;-69
2023/09/17 02:37:33;;;;;;;2.90;1.20;;;15.70;99.90;;;;;;5058370;28;20115;-70
2023/09/17 02:39:59;;;;;;;2.55;1.33;;;15.70;99.90;;;;;;5056701;28;20128;-69
2023/09/17 02:42:25;;;;;;;1.25;0.73;;;15.70;99.90;;;;;;5089483;28;20118;-69
2023/09/17 02:44:51;;;;;;;1.30;0.93;;;15.70;99.90;;;;;;5055395;28;20486;-69
2023/09/17 02:47:16;;;;;;;1.13;0.90;;;15.70;99.90;;;;;;5058011;28;20048;-70
2023/09/17 02:49:44;;;;;;;2.95;1.65;;;15.60;99.90;;;;;;5091313;28;20107;-69
2023/09/17 02:52:10;;;;;;;2.28;1.48;;;15.60;99.90;;;;;;5054946;28;20088;-69
2023/09/17 02:54:35;;;;;;;3.97;1.80;;;15.60;99.90;;;;;;5055583;28;20076;-69
2023/09/17 02:57:02;;;;;;;3.17;1.50;;;15.60;99.90;;;;;;5055149;28;20036;-69
2023/09/17 02:59:28;;;;;;;2.33;1.23;;;15.50;99.90;;;;;;5061094;28;20174;-69
2023/09/17 03:01:54;;;;;;;2.00;1.25;;;15.50;99.90;;;;;;5054331;28;20060;-70
2023/09/17 03:04:20;;;;;;;2.47;1.77;;;15.50;99.90;;;;;;5063248;28;20075;-70
2023/09/17 03:06:46;;;;;;;1.88;1.27;;;15.50;99.90;;;;;;5056313;28;20041;-68
2023/09/17 03:09:13;;;;;;;3.30;1.65;;;15.50;99.90;;;;;;5072255;28;20607;-69
2023/09/17 03:11:39;;;;;;;3.60;2.25;;;15.50;99.90;;;;;;5059276;28;20110;-69
2023/09/17 03:14:05;;;;;;;2.65;1.80;;;15.50;99.90;;;;;;5062647;28;20066;-68
2023/09/17 03:16:31;;;;;;;2.95;1.58;;;15.50;99.90;;;;;;5089285;28;20041;-69
2023/09/17 03:18:56;;;;;;;5.65;2.00;;;15.50;99.90;;;;;;5065283;28;20067;-69
2023/09/17 03:21:22;;;;;;;2.90;1.55;;;15.50;99.90;;;;;;5057692;28;20363;-68
2023/09/17 03:23:48;;;;;;;3.45;1.70;;;15.50;99.90;;;;;;5064150;28;20054;-70
2023/09/17 03:26:14;;;;;;;1.50;0.95;;;15.50;99.90;;;;;;5052616;28;20040;-69
2023/09/17 03:28:39;;;;;;;1.85;1.45;;;15.50;99.90;;;;;;5074764;28;20119;-69
2023/09/17 03:31:06;;;;;;;2.92;1.17;;;15.50;99.90;;;;;;5059893;28;20044;-69
2023/09/17 03:33:31;;;;;;;2.35;1.52;;;15.50;99.90;;;;;;5053193;28;20489;-69
2023/09/17 03:35:59;;;;;;;1.67;0.98;;;15.50;99.90;;;;;;5057794;28;20448;-69
2023/09/17 03:38:24;;;;;;;5.07;2.28;;;15.50;99.90;;;;;;5052969;28;20041;-69
2023/09/17 03:40:50;;;;;;;2.50;1.42;;;15.50;99.90;;;;;;5092015;28;20036;-69
2023/09/17 03:43:16;;;;;;;3.17;1.88;;;15.50;99.90;;;;;;5057530;28;20140;-70
2023/09/17 03:45:41;;;;;;;4.18;2.05;;;15.50;99.90;;;;;;5056822;28;20048;-69
2023/09/17 03:48:08;;;;;;;3.67;1.75;;;15.60;99.90;;;;;;5053785;28;20067;-70
2023/09/17 03:50:39;;;;;;;2.70;1.70;;;15.60;99.90;;;;;;5052805;28;20090;-69
2023/09/17 03:53:05;;;;;;;4.97;1.73;;;15.60;99.90;;;;;;5089227;28;20041;-70
2023/09/17 03:55:33;;;;;;;2.15;1.52;;;15.60;99.90;;;;;;5056471;28;20076;-69
2023/09/17 03:58:00;;;;;;;2.28;1.25;;;15.60;99.90;;;;;;5058658;28;20032;-69
2023/09/17 04:00:26;;;;;;;1.60;1.40;;;15.70;99.90;;;;;;5056481;28;21302;-69
2023/09/17 04:02:53;;;;;;;2.63;1.15;;;15.60;99.90;;;;;;5058973;28;20059;-69
2023/09/17 04:05:21;;;;;;;4.18;1.80;;;15.60;99.90;;;;;;5055154;28;20041;-69
2023/09/17 04:07:47;;;;;;;1.88;1.10;;;15.60;99.90;;;;;;5055421;28;20127;-69
2023/09/17 04:10:14;;;;;;;2.28;1.15;;;15.60;99.90;;;;;;5057889;28;20060;-70
2023/09/17 04:12:42;;;;;;;3.03;1.67;;;15.60;99.90;;;;;;5073782;28;20485;-69
2023/09/17 04:15:21;;;;;;;2.40;1.30;;;15.60;99.90;;;;;;5059456;28;20461;-69
2023/09/17 04:17:50;;;;;;;3.25;1.88;;;15.60;99.90;;;;;;5073041;28;20330;-69
2023/09/17 04:20:18;;;;;;;2.75;1.92;;;15.60;99.90;;;;;;5045043;28;20396;-70
2023/09/17 04:22:48;;;;;;;8.35;1.65;;;15.60;99.90;;;;;;5054519;28;20045;-70
2023/09/17 04:25:15;;;;;;;1.85;1.40;;;15.60;99.90;;;;;;5058676;28;20112;-69
2023/09/17 04:27:41;;;;;;;1.83;1.17;;;15.60;99.90;;;;;;5085855;28;20049;-69
2023/09/17 04:30:08;;;;;;;2.50;1.40;;;15.70;99.90;;;;;;5058604;28;20033;-70
2023/09/17 04:32:38;;;;;;;2.13;1.23;;;15.70;99.90;;;;;;5038854;28;20051;-70
2023/09/17 04:35:11;;;;;;;1.65;1.00;;;15.70;99.90;;;;;;5059945;28;20041;-69
2023/09/17 04:37:39;;;;;;;2.60;1.17;;;15.70;99.90;;;;;;5057340;28;20090;-70
2023/09/17 04:40:08;;;;;;;1.98;1.27;;;15.70;99.90;;;;;;5055045;28;20047;-69
2023/09/17 04:42:42;;;;;;;3.80;1.27;;;15.70;99.90;;;;;;5050300;28;20076;-69
2023/09/17 04:45:09;;;;;;;2.90;1.85;;;15.70;99.90;;;;;;5062667;28;20404;-69
2023/09/17 04:47:36;;;;;;;1.98;1.17;;;15.70;99.90;;;;;;5055432;28;20045;-69
2023/09/17 04:50:08;;;;;;;2.58;1.67;;;15.70;99.90;;;;;;5056460;28;20044;-69
2023/09/17 04:52:34;;;;;;;2.53;1.38;;;15.70;99.90;;;;;;5060865;28;20131;-69
2023/09/17 04:55:01;;;;;;;3.10;2.00;;;15.70;99.90;;;;;;5054163;28;20032;-69
2023/09/17 04:57:26;;;;;;;1.45;1.05;;;15.70;99.90;;;;;;5064344;28;20048;-69
2023/09/17 04:59:52;;;;;;;1.52;1.20;;;15.70;99.90;;;;;;5054906;28;20057;-69
2023/09/17 05:02:18;;;;;;;3.97;2.10;;;15.70;99.90;;;;;;5055957;28;20082;-69
2023/09/17 05:04:44;;;;;;;3.95;2.05;;;15.70;99.90;;;;;;5040246;28;20037;-69
2023/09/17 05:07:10;;;;;;;2.83;2.00;;;15.70;99.90;;;;;;5054218;28;20041;-69
2023/09/17 05:09:37;;;;;;;2.60;1.45;;;15.70;99.90;;;;;;5056035;28;20566;-69
2023/09/17 05:12:04;;;;;;;2.70;1.80;;;15.70;99.90;;;;;;5059509;28;20052;-69
2023/09/17 05:14:29;;;;;;;3.50;1.40;;;15.70;99.90;;;;;;5047449;28;20045;-69
2023/09/17 05:16:55;;;;;;;3.25;1.70;;;15.70;99.90;;;;;;5062073;28;20028;-69
2023/09/17 05:19:21;;;;;;;2.67;1.50;;;15.70;99.90;;;;;;5075699;28;20072;-69
2023/09/17 05:21:46;;;;;;;3.42;1.90;;;15.70;99.90;;;;;;5064072;28;20431;-69
2023/09/17 05:24:13;;;;;;;3.10;1.38;;;15.70;99.90;;;;;;5064176;28;20040;-69
2023/09/17 05:26:39;;;;;;;4.38;1.45;;;15.70;99.90;;;;;;5094390;28;20063;-69
2023/09/17 05:29:04;;;;;;;1.95;1.08;;;15.80;99.90;;;;;;5091111;28;20036;-69
2023/09/17 05:31:30;;;;;;;3.03;1.42;;;15.80;99.90;;;;;;5094603;28;20634;-69
2023/09/17 05:33:57;;;;;;;4.32;2.15;;;15.80;99.90;;;;;;5054987;28;20071;-69
2023/09/17 05:36:23;;;;;;;4.72;2.45;;;15.80;99.90;;;;;;5055157;28;20087;-70
2023/09/17 05:38:49;;;;;;;4.82;1.48;;;15.80;99.90;;;;;;5059828;28;20114;-69
2023/09/17 05:41:15;;;;;;;2.08;1.45;;;15.80;99.90;;;;;;5057452;28;20511;-69
2023/09/17 05:43:41;;;;;;;3.30;1.55;;;15.80;99.90;;;;;;5059147;28;20063;-69
2023/09/17 05:46:07;;;;;;;2.05;1.13;;;15.80;99.90;;;;;;5057950;28;20037;-70
2023/09/17 05:48:32;;;;;;;3.25;1.80;;;15.80;99.90;;;;;;5059704;28;20052;-69
2023/09/17 05:50:59;;;;;;;5.30;2.08;;;15.80;99.90;;;;;;5091717;28;20024;-69
2023/09/17 05:53:24;;;;;;;2.80;1.58;;;15.90;99.90;;;;;;5057711;28;20036;-69
2023/09/17 05:55:50;;;;;;;3.45;2.33;;;15.90;99.90;;;;;;5060442;28;20032;-69
2023/09/17 05:58:16;;;;;;;3.72;2.35;;;15.90;99.90;;;;;;5053990;28;20028;-69
2023/09/17 06:00:41;;;;;;;4.07;2.47;;;15.90;99.90;;;;;;5056378;28;20405;-69
2023/09/17 06:03:07;;;;;;;4.03;2.30;;;15.90;99.90;;;;;;5062931;28;20048;-69
2023/09/17 06:05:33;;;;;;;3.20;1.98;;;16.00;99.90;;;;;;5060416;28;20124;-69
2023/09/17 06:07:59;;;;;;;3.72;1.85;;;16.00;99.90;;;;;;5056198;28;20545;-69
2023/09/17 06:10:25;;;;;;;2.70;1.45;;;16.00;99.90;;;;;;5057452;28;20033;-68
2023/09/17 06:12:50;;;;;;;3.72;2.05;;;16.10;99.90;;;;;;5087850;28;20033;-68
2023/09/17 06:15:16;;;;;;;4.13;1.65;;;16.10;99.90;;;;;;5054007;28;20381;-68
2023/09/17 06:17:42;;;;;;;2.95;1.70;;;16.10;99.90;;;;;;5056109;28;20059;-68
2023/09/17 06:20:08;;;;;;;2.58;1.70;;;16.20;99.90;;;;;;5059684;28;20044;-68
2023/09/17 06:22:34;;;;;;;2.58;1.50;;;16.20;99.90;;;;;;5056658;28;20045;-69
2023/09/17 06:25:00;;;;;;;2.95;1.90;;;16.20;99.90;;;;;;5058509;28;20492;-68
2023/09/17 06:27:25;;;;;;;5.35;2.15;;;16.20;99.90;;;;;;5058123;28;20047;-69
2023/09/17 06:29:51;;;;;;;2.83;2.08;;;16.30;99.90;;;;;;5049454;28;20040;-69
2023/09/17 06:32:17;;;;;;;1.50;1.10;;;16.30;99.90;;;;;;5070247;28;20037;-69
2023/09/17 06:34:44;;;;;;;2.65;1.55;;;16.40;99.90;;;;;;5057472;28;20049;-69
2023/09/17 06:37:10;;;;;;;3.38;1.90;;;16.40;99.90;;;;;;5047619;28;20032;-69
2023/09/17 06:39:36;;;;;;;3.40;1.98;;;16.40;99.90;;;;;;5053662;28;20053;-68
2023/09/17 06:42:02;;;;;;;3.30;1.80;;;16.50;99.90;;;;;;5061052;28;20040;-69
2023/09/17 06:44:27;;;;;;;3.45;1.85;;;16.50;99.90;;;;;;5056334;28;20045;-69
2023/09/17 06:46:53;;;;;;;2.70;1.92;;;16.50;99.90;;;;;;5057919;28;20151;-69
2023/09/17 06:49:19;;;;;;;2.03;1.48;;;16.50;99.90;;;;;;5052592;28;20041;-69
2023/09/17 06:51:45;;;;;;;3.08;1.88;;;16.60;99.90;;;;;;5095681;28;20086;-69
2023/09/17 06:54:11;;;;;;;2.47;1.80;;;16.60;99.90;;;;;;5057173;28;20036;-69
2023/09/17 06:56:36;;;;;;;2.40;1.35;;;16.60;99.90;;;;;;5062626;28;20049;-69
2023/09/17 06:59:03;;;;;;;1.52;1.13;;;16.60;99.90;;;;;;5090681;28;20063;-69
2023/09/17 07:01:29;;;;;;;2.40;1.88;;;16.60;99.90;;;;;;5059281;28;20068;-70
2023/09/17 07:03:55;;;;;;;3.00;1.70;;;16.70;99.90;;;;;;5057989;28;20037;-69
2023/09/17 07:06:21;;;;;;;1.90;1.20;;;16.70;99.90;;;;;;5056379;28;20050;-69
2023/09/17 07:08:47;;;;;;;2.95;1.95;;;16.70;99.90;;;;;;5057290;28;20133;-68
2023/09/17 07:11:13;;;;;;;2.55;1.95;;;16.70;99.90;;;;;;5061309;28;20033;-68
2023/09/17 07:13:40;;;;;;;4.22;1.88;;;16.60;99.90;;;;;;5058758;28;20416;-70
2023/09/17 07:16:06;;;;;;;2.63;1.67;;;16.70;99.90;;;;;;5086216;28;20508;-69
2023/09/17 07:18:32;;;;;;;2.60;1.48;;;16.60;99.90;;;;;;5057927;28;20472;-69
2023/09/17 07:20:58;;;;;;;2.75;1.73;;;16.60;99.90;;;;;;5052850;28;20086;-69
2023/09/17 07:23:25;;;;;;;2.28;1.30;;;16.70;99.90;;;;;;5059455;28;20126;-69
2023/09/17 07:25:51;;;;;;;2.70;1.42;;;16.60;99.90;;;;;;5058770;28;20115;-70
2023/09/17 07:28:18;;;;;;;2.97;1.52;;;16.70;99.90;;;;;;5058443;28;20472;-71
2023/09/17 07:30:44;;;;;;;5.70;1.50;;;16.70;99.90;;;;;;5056397;28;20425;-69
2023/09/17 07:33:10;;;;;;;3.05;1.65;;;16.70;99.90;;;;;;5056022;28;20067;-70
2023/09/17 07:35:39;;;;;;;2.80;1.75;;;16.60;99.90;;;;;;5057820;28;20039;-69
2023/09/17 07:38:05;;;;;;;3.13;1.42;;;16.70;99.90;;;;;;5050796;28;20489;-69
2023/09/17 07:40:32;;;;;;;3.22;1.52;;;16.60;99.90;;;;;;5052340;28;20039;-70
2023/09/17 07:42:58;;;;;;;5.80;2.33;;;16.70;99.90;;;;;;5057280;28;20669;-69
2023/09/17 07:45:24;;;;;;;2.20;1.80;;;16.70;99.90;;;;;;5058893;28;20032;-70
2023/09/17 07:47:49;;;;;;;3.17;2.03;;;16.70;99.90;;;;;;5052334;28;20033;-70
2023/09/17 07:50:15;;;;;;;2.38;1.63;;;16.70;99.90;;;;;;5058151;28;20112;-70
2023/09/17 07:52:41;;;;;;;3.63;1.65;;;16.70;99.90;;;;;;5054675;28;20404;-70
2023/09/17 07:55:08;;;;;;;2.58;1.42;;;16.70;99.90;;;;;;5044911;28;20033;-69
2023/09/17 07:57:34;;;;;;;2.70;1.73;;;16.70;99.90;;;;;;5053301;28;20100;-70
2023/09/17 08:00:00;;;;;;;3.03;1.50;;;16.70;99.90;;;;;;5055606;28;20061;-70
2023/09/17 08:02:26;;;;;;;2.08;1.48;;;16.70;99.90;;;;;;5061179;28;20055;-70
2023/09/17 08:04:52;;;;;;;2.45;1.23;;;16.70;99.90;;;;;;5057084;28;20052;-69
2023/09/17 08:07:18;;;;;;;2.20;1.20;;;16.70;99.90;;;;;;5057008;28;20102;-70
2023/09/17 08:09:44;;;;;;;1.88;1.40;;;16.80;99.90;;;;;;5057687;28;20037;-70
2023/09/17 08:12:10;;;;;;;1.27;0.88;;;16.80;99.90;;;;;;5088134;28;20048;-70
2023/09/17 08:14:36;;;;;;;2.58;1.35;;;16.80;99.90;;;;;;5061714;28;20416;-69
2023/09/17 08:17:04;;;;;;;2.30;1.20;;;16.80;99.90;;;;;;5057622;28;20045;-70
2023/09/17 08:19:30;;;;;;;2.17;1.27;;;16.80;99.90;;;;;;5055091;28;20045;-70
2023/09/17 08:21:56;;;;;;;3.95;2.00;;;16.90;99.90;;;;;;5055805;28;20523;-69
2023/09/17 08:24:25;;;;;;;1.83;1.13;;;16.90;99.90;;;;;;5054737;28;20076;-69
2023/09/17 08:26:52;;;;;;;2.50;1.40;;;16.90;99.90;;;;;;5038733;28;20050;-70
2023/09/17 08:29:21;;;;;;;4.53;1.52;;;16.90;99.90;;;;;;5039361;28;20037;-70
2023/09/17 08:31:47;;;;;;;2.60;2.05;;;16.90;99.90;;;;;;5060529;28;20036;-69
2023/09/17 08:34:14;;;;;;;3.50;2.08;;;17.00;99.90;;;;;;5063400;28;20109;-69
2023/09/17 08:36:40;;;;;;;4.43;2.33;;;17.00;99.90;;;;;;5056621;28;20098;-69
2023/09/17 08:39:09;;;;;;;3.45;1.83;;;17.00;99.90;;;;;;5053234;28;20045;-70
2023/09/17 08:41:40;;;;;;;3.60;1.63;;;17.00;99.90;;;;;;5051673;28;20056;-69
2023/09/17 08:44:08;;;;;;;3.08;1.60;;;17.00;99.90;;;;;;5054481;28;20539;-70
2023/09/17 08:46:36;;;;;;;2.15;1.65;;;17.00;99.90;;;;;;5061407;28;20032;-70
2023/09/17 08:49:02;;;;;;;2.30;1.73;;;17.00;99.90;;;;;;5060463;28;20041;-69
2023/09/17 08:51:33;;;;;;;2.65;1.42;;;17.00;99.90;;;;;;5066203;28;20454;-69
2023/09/17 08:54:12;;;;;;;2.92;1.60;;;17.00;99.90;;;;;;5052330;28;20033;-70
2023/09/17 08:56:42;;;;;;;3.47;1.60;;;17.00;99.90;;;;;;5059208;28;20068;-70
2023/09/17 08:59:24;;;;;;;3.72;1.65;;;17.00;99.90;;;;;;5093750;28;20087;-70
2023/09/17 09:01:51;;;;;;;3.10;1.60;;;17.10;99.90;;;;;;5061023;28;20063;-69
2023/09/17 09:04:18;;;;;;;1.80;1.23;;;17.20;99.90;;;;;;5060869;28;20052;-69
2023/09/17 09:06:45;;;;;;;1.25;1.10;;;17.30;99.90;;;;;;5059025;28;20048;-69
2023/09/17 09:09:12;;;;;;;2.85;1.38;;;17.40;99.90;;;;;;5062095;28;20098;-70
2023/09/17 09:11:38;;;;;;;2.35;1.33;;;17.50;99.90;;;;;;5059768;28;20099;-69
2023/09/17 09:14:06;;;;;;;4.90;1.92;;;17.60;99.90;;;;;;5062184;28;20040;-69
2023/09/17 09:16:39;;;;;;;4.07;1.55;;;17.70;99.90;;;;;;5059151;28;20110;-70
2023/09/17 09:19:05;;;;;;;2.83;1.75;;;17.70;99.90;;;;;;5062305;28;20221;-70
2023/09/17 09:21:31;;;;;;;3.42;1.58;;;17.80;99.90;;;;;;5060213;28;20557;-69
2023/09/17 09:23:59;;;;;;;1.35;0.95;;;17.80;99.90;;;;;;5059628;28;20044;-70
2023/09/17 09:26:38;;;;;;;2.25;1.75;;;17.90;99.90;;;;;;5059696;28;20041;-69
2023/09/17 09:29:06;;;;;;;4.57;2.10;;;18.00;99.90;;;;;;5058131;28;20071;-69
2023/09/17 09:31:33;;;;;;;2.60;2.38;;;18.20;99.90;;;;;;5058760;28;20068;-69
2023/09/17 09:34:00;;;;;;;4.28;2.55;;;18.40;99.90;;;;;;5053880;28;20441;-69
2023/09/17 09:36:27;;;;;;;2.80;2.08;;;18.50;99.90;;;;;;5062621;28;20061;-69
2023/09/17 09:38:54;;;;;;;2.63;1.70;;;18.50;99.90;;;;;;5061840;28;20728;-70
2023/09/17 09:41:21;;;;;;;3.42;2.47;;;18.50;99.90;;;;;;5042863;28;20037;-70
2023/09/17 09:43:47;;;;;;;2.63;1.55;;;18.60;99.90;;;;;;5065314;28;20049;-70
2023/09/17 09:46:14;;;;;;;3.38;2.10;;;18.50;99.90;;;;;;5061025;28;20140;-69
2023/09/17 09:48:41;;;;;;;1.80;1.10;;;18.60;99.90;;;;;;5060425;28;20595;-69
2023/09/17 09:51:07;;;;;;;2.35;1.40;;;18.60;99.90;;;;;;5057758;28;20116;-69
2023/09/17 09:53:33;;;;;;;3.20;2.13;;;18.60;99.90;;;;;;5059176;28;20156;-69
2023/09/17 09:55:59;;;;;;;2.22;1.50;;;18.50;99.90;;;;;;5059500;28;20090;-69
2023/09/17 09:58:25;;;;;;;2.75;1.85;;;18.50;99.90;;;;;;5062549;28;20040;-70
2023/09/17 10:00:52;;;;;;;4.15;1.77;;;18.50;99.90;;;;;;5064556;28;20167;-69
2023/09/17 10:03:20;;;;;;;2.13;1.33;;;18.40;99.90;;;;;;5090490;28;20119;-69
2023/09/17 10:05:46;;;;;;;1.95;1.27;;;18.40;99.90;;;;;;5057809;28;20029;-70
2023/09/17 10:08:19;;;;;;;2.40;1.60;;;18.40;99.90;;;;;;5062251;28;20111;-70
2023/09/17 10:10:47;;;;;;;2.77;1.63;;;18.30;99.90;;;;;;5059040;28;20048;-70
2023/09/17 10:13:13;;;;;;;1.63;1.27;;;18.30;99.90;;;;;;5057474;28;20351;-70
2023/09/17 10:15:41;;;;;;;2.03;0.95;;;18.20;99.90;;;;;;5059297;28;20045;-69
2023/09/17 10:18:10;;;;;;;3.28;1.60;;;18.20;99.90;;;;;;5059969;28;20136;-68
2023/09/17 10:20:38;;;;;;;2.33;2.03;;;18.20;99.90;;;;;;5052627;28;20037;-68
2023/09/17 10:23:05;;;;;;;2.65;1.17;;;18.10;99.90;;;;;;5060730;28;20441;-66
2023/09/17 10:25:32;;;;;;;5.03;1.40;;;18.00;99.90;;;;;;5054973;28;20048;-67
2023/09/17 10:28:01;;;;;;;2.17;1.33;;;17.90;99.90;;;;;;5062999;28;20048;-68
2023/09/17 10:30:28;;;;;;;3.05;1.80;;;17.80;99.90;;;;;;5057925;28;20041;-68
2023/09/17 10:32:55;;;;;;;2.15;1.38;;;17.80;99.90;;;;;;5059378;28;20048;-68
2023/09/17 10:35:21;;;;;;;3.08;1.75;;;17.80;99.90;;;;;;5056128;28;20076;-68
2023/09/17 10:37:48;;;;;;;2.28;1.50;;;17.80;99.90;;;;;;5056707;28;20039;-68
2023/09/17 10:40:15;;;;;;;2.35;1.30;;;17.90;99.90;;;;;;5058169;28;20049;-68
2023/09/17 10:42:41;;;;;;;2.75;1.48;;;18.00;99.90;;;;;;5058735;28;20071;-68
2023/09/17 10:45:09;;;;;;;1.83;1.25;;;18.00;99.90;;;;;;5057214;28;20102;-68
2023/09/17 10:47:36;;;;;;;2.13;1.40;;;18.10;99.90;;;;;;5058541;28;20049;-68
2023/09/17 10:50:03;;;;;;;2.15;1.30;;;18.10;99.90;;;;;;5056056;28;20447;-68
2023/09/17 10:52:30;;;;;;;2.67;1.60;;;18.10;99.90;;;;;;5059625;28;20044;-68
2023/09/17 10:54:56;;;;;;;3.05;1.70;;;18.10;99.90;;;;;;5062148;28;20399;-68
2023/09/17 10:57:44;;;;;;;5.22;1.83;;;18.00;99.90;;;;;;5061218;28;20044;-68
2023/09/17 11:00:17;;;;;;;2.65;2.00;;;18.00;99.90;;;;;;5057235;28;20052;-68
2023/09/17 11:02:48;;;;;;;2.15;1.35;;;18.00;99.90;;;;;;5057397;28;20088;-68
2023/09/17 11:05:17;;;;;;;3.88;1.50;;;18.00;99.90;;;;;;5056097;28;20147;-68
2023/09/17 11:07:43;;;;;;;2.75;2.03;;;18.10;99.90;;;;;;5057899;28;20565;-68
2023/09/17 11:10:11;;;;;;;2.45;1.80;;;18.20;99.90;;;;;;5055612;28;20041;-68
2023/09/17 11:12:38;;;;;;;1.73;1.55;;;18.40;99.90;;;;;;5059569;28;20420;-69
2023/09/17 11:15:05;;;;;;;2.17;1.40;;;18.40;99.90;;;;;;5052797;28;20453;-68
2023/09/17 11:17:32;;;;;;;2.38;1.58;;;18.50;99.90;;;;;;5090883;28;20040;-68
2023/09/17 11:19:59;;;;;;;2.45;1.98;;;18.50;99.90;;;;;;5057164;28;20040;-68
2023/09/17 11:22:27;;;;;;;2.63;1.95;;;18.50;99.90;;;;;;5055795;28;20048;-68
2023/09/17 11:24:53;;;;;;;3.22;1.73;;;18.60;99.90;;;;;;5059893;28;20117;-68
2023/09/17 11:27:20;;;;;;;2.45;1.52;;;18.70;99.90;;;;;;5058548;28;20036;-68
2023/09/17 11:29:46;;;;;;;4.40;2.40;;;19.10;99.90;;;;;;5058582;28;20037;-69
2023/09/17 11:32:20;;;;;;;3.13;1.90;;;19.60;99.90;;;;;;5055371;28;20033;-68
2023/09/17 11:34:47;;;;;;;4.25;2.08;;;19.80;99.90;;;;;;5059853;28;20044;-69
2023/09/17 11:37:18;;;;;;;3.78;2.28;;;19.70;99.90;;;;;;5050642;28;20124;-69
2023/09/17 11:39:51;;;;;;;2.95;1.83;;;19.70;99.90;;;;;;5050776;28;20055;-69
2023/09/17 11:42:16;;;;;;;2.53;1.73;;;19.70;99.90;;;;;;5054037;28;20054;-69
2023/09/17 11:44:44;;;;;;;2.72;1.75;;;19.60;99.90;;;;;;5058626;28;20047;-69
2023/09/17 11:47:12;;;;;;;2.80;1.85;;;19.60;99.90;;;;;;5056964;28;20043;-70
2023/09/17 11:49:42;;;;;;;3.30;1.65;;;19.60;99.90;;;;;;5057542;28;20047;-70
2023/09/17 11:52:12;;;;;;;2.75;1.52;;;19.70;99.90;;;;;;5087673;28;20094;-70
2023/09/17 11:54:51;;;;;;;3.72;2.00;;;19.90;99.90;;;;;;5072813;28;20032;-70
2023/09/17 11:57:24;;;;;;;4.05;2.15;;;20.10;99.90;;;;;;5054202;28;20048;-70
2023/09/17 11:59:50;;;;;;;2.63;1.95;;;20.50;99.90;;;;;;5051927;28;20053;-70
2023/09/17 12:02:17;;;;;;;2.70;1.50;;;20.70;99.90;;;;;;5060557;28;20056;-70
2023/09/17 12:04:43;;;;;;;5.00;2.22;;;20.70;99.90;;;;;;5060603;28;20507;-70
2023/09/17 12:07:12;;;;;;;3.30;2.08;;;20.70;99.90;;;;;;5059581;28;20064;-70
2023/09/17 12:10:03;;;;;;;2.28;1.38;;;20.70;99.90;;;;;;5059249;28;20048;-70
2023/09/17 12:12:33;;;;;;;3.40;1.95;;;20.60;99.90;;;;;;5055786;28;20044;-70
2023/09/17 12:14:59;;;;;;;3.22;1.77;;;20.60;99.90;;;;;;5061476;28;20120;-71
2023/09/17 12:17:25;;;;;;;2.67;1.77;;;20.60;99.90;;;;;;5092395;28;20350;-71
2023/09/17 12:19:59;;;;;;;2.10;1.30;;;20.50;99.90;;;;;;5060783;28;20036;-71
2023/09/17 12:22:25;;;;;;;3.55;1.67;;;20.50;99.90;;;;;;5063624;28;20036;-71
2023/09/17 12:25:03;;;;;;;3.95;2.13;;;20.40;99.90;;;;;;5062701;28;20127;-71
2023/09/17 12:27:34;;;;;;;3.38;2.03;;;20.40;99.90;;;;;;5061177;28;20037;-71
2023/09/17 12:30:05;;;;;;;2.85;1.58;;;20.30;99.90;;;;;;5066247;28;20504;-72
2023/09/17 12:32:33;;;;;;;1.92;1.23;;;20.30;99.90;;;;;;5094348;28;20033;-71
2023/09/17 12:34:59;;;;;;;3.50;1.52;;;20.20;99.90;;;;;;5059906;28;20039;-71
2023/09/17 12:37:26;;;;;;;3.72;1.70;;;20.20;99.90;;;;;;5064706;28;20048;-71
2023/09/17 12:39:52;;;;;;;3.72;2.45;;;20.20;99.90;;;;;;5067359;28;20145;-71
2023/09/17 12:42:20;;;;;;;2.90;1.65;;;20.20;99.90;;;;;;5071452;28;20040;-71
2023/09/17 12:44:46;;;;;;;2.72;1.80;;;20.20;99.90;;;;;;5062288;28;20049;-71
2023/09/17 12:47:12;;;;;;;2.70;1.98;;;20.20;99.90;;;;;;5062237;28;20119;-71